sensor_id;sensor_type;location;lat;lon;timestamp;P1;durP1;ratioP1;P2;durP2;ratioP2
10096;SDS011;5087;42.662;23.466;2022-11-04T00:00:14;3.77;;;3.77;;
10096;SDS011;5087;42.662;23.466;2022-11-04T00:02:42;4.20;;;4.10;;
10096;SDS011;5087;42.662;23.466;2022-11-04T00:05:09;3.30;;;3.30;;
10096;SDS011;5087;42.662;23.466;2022-11-04T00:07:38;4.00;;;3.90;;
10096;SDS011;5087;42.662;23.466;2022-11-04T00:10:23;3.30;;;3.30;;
10096;SDS011;5087;42.662;23.466;2022-11-04T00:13:11;3.50;;;3.50;;
10096;SDS011;5087;42.662;23.466;2022-11-04T00:15:37;4.30;;;4.20;;
10096;SDS011;5087;42.662;23.466;2022-11-04T00:18:21;3.70;;;3.70;;
10096;SDS011;5087;42.662;23.466;2022-11-04T00:20:49;4.17;;;3.97;;
10096;SDS011;5087;42.662;23.466;2022-11-04T00:23:35;3.50;;;3.50;;
10096;SDS011;5087;42.662;23.466;2022-11-04T00:26:22;3.60;;;3.60;;
10096;SDS011;5087;42.662;23.466;2022-11-04T00:29:06;3.77;;;3.77;;
10096;SDS011;5087;42.662;23.466;2022-11-04T00:31:34;3.70;;;3.70;;
10096;SDS011;5087;42.662;23.466;2022-11-04T00:34:18;3.40;;;3.40;;
10096;SDS011;5087;42.662;23.466;2022-11-04T00:36:46;3.67;;;3.67;;
10096;SDS011;5087;42.662;23.466;2022-11-04T00:39:14;4.37;;;4.27;;
10096;SDS011;5087;42.662;23.466;2022-11-04T00:41:41;4.10;;;4.00;;
10096;SDS011;5087;42.662;23.466;2022-11-04T00:44:08;3.80;;;3.80;;
10096;SDS011;5087;42.662;23.466;2022-11-04T00:46:36;3.77;;;3.77;;
10096;SDS011;5087;42.662;23.466;2022-11-04T00:49:03;3.90;;;3.90;;
10096;SDS011;5087;42.662;23.466;2022-11-04T00:51:30;3.60;;;3.60;;
10096;SDS011;5087;42.662;23.466;2022-11-04T00:53:58;3.50;;;3.50;;
10096;SDS011;5087;42.662;23.466;2022-11-04T00:56:26;3.60;;;3.60;;
10096;SDS011;5087;42.662;23.466;2022-11-04T00:58:54;3.87;;;3.87;;
10096;SDS011;5087;42.662;23.466;2022-11-04T01:01:21;3.77;;;3.70;;
10096;SDS011;5087;42.662;23.466;2022-11-04T01:03:49;3.30;;;3.30;;
10096;SDS011;5087;42.662;23.466;2022-11-04T01:06:18;4.20;;;4.10;;
10096;SDS011;5087;42.662;23.466;2022-11-04T01:08:47;4.20;;;4.10;;
10096;SDS011;5087;42.662;23.466;2022-11-04T01:11:15;3.90;;;3.90;;
10096;SDS011;5087;42.662;23.466;2022-11-04T01:13:44;3.90;;;3.90;;
10096;SDS011;5087;42.662;23.466;2022-11-04T01:16:11;4.40;;;4.30;;
10096;SDS011;5087;42.662;23.466;2022-11-04T01:18:38;4.30;;;4.20;;
10096;SDS011;5087;42.662;23.466;2022-11-04T01:21:07;4.60;;;4.50;;
10096;SDS011;5087;42.662;23.466;2022-11-04T01:23:36;3.80;;;3.80;;
10096;SDS011;5087;42.662;23.466;2022-11-04T01:26:03;4.47;;;4.37;;
10096;SDS011;5087;42.662;23.466;2022-11-04T01:28:31;4.33;;;4.23;;
10096;SDS011;5087;42.662;23.466;2022-11-04T01:31:00;3.70;;;3.70;;
10096;SDS011;5087;42.662;23.466;2022-11-04T01:33:31;4.00;;;3.90;;
10096;SDS011;5087;42.662;23.466;2022-11-04T01:36:00;3.60;;;3.60;;
10096;SDS011;5087;42.662;23.466;2022-11-04T01:38:27;3.50;;;3.50;;
10096;SDS011;5087;42.662;23.466;2022-11-04T01:40:55;3.40;;;3.40;;
10096;SDS011;5087;42.662;23.466;2022-11-04T01:43:30;3.50;;;3.50;;
10096;SDS011;5087;42.662;23.466;2022-11-04T01:46:11;3.20;;;3.20;;
10096;SDS011;5087;42.662;23.466;2022-11-04T01:48:46;3.37;;;3.27;;
10096;SDS011;5087;42.662;23.466;2022-11-04T01:51:14;3.40;;;3.40;;
10096;SDS011;5087;42.662;23.466;2022-11-04T01:53:42;2.80;;;2.80;;
10096;SDS011;5087;42.662;23.466;2022-11-04T01:56:11;2.70;;;2.70;;
10096;SDS011;5087;42.662;23.466;2022-11-04T01:58:41;2.30;;;2.30;;
10096;SDS011;5087;42.662;23.466;2022-11-04T02:01:14;2.50;;;2.50;;
10096;SDS011;5087;42.662;23.466;2022-11-04T02:03:43;2.40;;;2.40;;
10096;SDS011;5087;42.662;23.466;2022-11-04T02:06:15;2.23;;;2.23;;
10096;SDS011;5087;42.662;23.466;2022-11-04T02:08:44;2.27;;;2.27;;
10096;SDS011;5087;42.662;23.466;2022-11-04T02:11:12;2.70;;;2.70;;
10096;SDS011;5087;42.662;23.466;2022-11-04T02:14:00;1.80;;;1.80;;
10096;SDS011;5087;42.662;23.466;2022-11-04T02:16:30;1.90;;;1.90;;
10096;SDS011;5087;42.662;23.466;2022-11-04T02:19:09;1.80;;;1.80;;
10096;SDS011;5087;42.662;23.466;2022-11-04T02:21:58;1.90;;;1.90;;
10096;SDS011;5087;42.662;23.466;2022-11-04T02:24:55;1.90;;;1.90;;
10096;SDS011;5087;42.662;23.466;2022-11-04T02:27:40;1.70;;;1.70;;
10096;SDS011;5087;42.662;23.466;2022-11-04T02:30:20;2.00;;;2.00;;
10096;SDS011;5087;42.662;23.466;2022-11-04T02:32:55;1.93;;;1.93;;
10096;SDS011;5087;42.662;23.466;2022-11-04T02:35:35;1.97;;;1.97;;
10096;SDS011;5087;42.662;23.466;2022-11-04T02:38:09;1.70;;;1.70;;
10096;SDS011;5087;42.662;23.466;2022-11-04T02:40:47;1.40;;;1.40;;
10096;SDS011;5087;42.662;23.466;2022-11-04T02:43:24;1.10;;;1.10;;
10096;SDS011;5087;42.662;23.466;2022-11-04T02:46:02;1.10;;;1.10;;
10096;SDS011;5087;42.662;23.466;2022-11-04T02:48:35;1.03;;;1.03;;
10096;SDS011;5087;42.662;23.466;2022-11-04T02:51:07;0.90;;;0.90;;
10096;SDS011;5087;42.662;23.466;2022-11-04T02:53:39;0.80;;;0.80;;
10096;SDS011;5087;42.662;23.466;2022-11-04T02:56:12;1.03;;;1.03;;
10096;SDS011;5087;42.662;23.466;2022-11-04T02:58:42;0.60;;;0.60;;
10096;SDS011;5087;42.662;23.466;2022-11-04T03:01:16;0.70;;;0.70;;
10096;SDS011;5087;42.662;23.466;2022-11-04T03:03:48;0.90;;;0.90;;
10096;SDS011;5087;42.662;23.466;2022-11-04T03:06:19;0.70;;;0.70;;
10096;SDS011;5087;42.662;23.466;2022-11-04T03:08:50;0.60;;;0.60;;
10096;SDS011;5087;42.662;23.466;2022-11-04T03:11:20;1.33;;;1.33;;
10096;SDS011;5087;42.662;23.466;2022-11-04T03:13:50;0.70;;;0.70;;
10096;SDS011;5087;42.662;23.466;2022-11-04T03:16:25;0.70;;;0.70;;
10096;SDS011;5087;42.662;23.466;2022-11-04T03:18:59;0.80;;;0.80;;
10096;SDS011;5087;42.662;23.466;2022-11-04T03:21:31;0.80;;;0.80;;
10096;SDS011;5087;42.662;23.466;2022-11-04T03:24:02;0.80;;;0.80;;
10096;SDS011;5087;42.662;23.466;2022-11-04T03:26:32;0.80;;;0.80;;
10096;SDS011;5087;42.662;23.466;2022-11-04T03:29:13;0.60;;;0.60;;
10096;SDS011;5087;42.662;23.466;2022-11-04T03:31:51;0.70;;;0.70;;
10096;SDS011;5087;42.662;23.466;2022-11-04T03:34:26;0.60;;;0.60;;
10096;SDS011;5087;42.662;23.466;2022-11-04T03:36:54;0.40;;;0.40;;
10096;SDS011;5087;42.662;23.466;2022-11-04T03:39:21;0.30;;;0.30;;
10096;SDS011;5087;42.662;23.466;2022-11-04T03:41:49;0.30;;;0.30;;
10096;SDS011;5087;42.662;23.466;2022-11-04T03:44:20;0.30;;;0.30;;
10096;SDS011;5087;42.662;23.466;2022-11-04T03:46:47;0.30;;;0.30;;
10096;SDS011;5087;42.662;23.466;2022-11-04T03:49:18;0.43;;;0.43;;
10096;SDS011;5087;42.662;23.466;2022-11-04T03:51:47;0.30;;;0.30;;
10096;SDS011;5087;42.662;23.466;2022-11-04T03:54:14;1.77;;;1.67;;
10096;SDS011;5087;42.662;23.466;2022-11-04T03:56:56;0.40;;;0.40;;
10096;SDS011;5087;42.662;23.466;2022-11-04T04:02:57;0.83;;;0.83;;
10096;SDS011;5087;42.662;23.466;2022-11-04T04:05:29;0.30;;;0.30;;
10096;SDS011;5087;42.662;23.466;2022-11-04T04:08:01;0.23;;;0.23;;
10096;SDS011;5087;42.662;23.466;2022-11-04T04:10:41;0.20;;;0.20;;
10096;SDS011;5087;42.662;23.466;2022-11-04T04:13:18;0.40;;;0.40;;
10096;SDS011;5087;42.662;23.466;2022-11-04T04:15:53;0.30;;;0.30;;
10096;SDS011;5087;42.662;23.466;2022-11-04T04:18:39;0.20;;;0.20;;
10096;SDS011;5087;42.662;23.466;2022-11-04T04:21:12;0.20;;;0.20;;
10096;SDS011;5087;42.662;23.466;2022-11-04T04:23:42;0.40;;;0.40;;
10096;SDS011;5087;42.662;23.466;2022-11-04T04:26:25;0.20;;;0.20;;
10096;SDS011;5087;42.662;23.466;2022-11-04T04:29:12;0.20;;;0.20;;
10096;SDS011;5087;42.662;23.466;2022-11-04T04:31:40;0.20;;;0.20;;
10096;SDS011;5087;42.662;23.466;2022-11-04T04:34:20;0.20;;;0.20;;
10096;SDS011;5087;42.662;23.466;2022-11-04T04:36:51;0.20;;;0.20;;
10096;SDS011;5087;42.662;23.466;2022-11-04T04:39:23;0.20;;;0.20;;
10096;SDS011;5087;42.662;23.466;2022-11-04T04:42:12;0.67;;;0.67;;
10096;SDS011;5087;42.662;23.466;2022-11-04T04:44:56;0.20;;;0.20;;
10096;SDS011;5087;42.662;23.466;2022-11-04T04:47:32;0.20;;;0.20;;
10096;SDS011;5087;42.662;23.466;2022-11-04T04:50:05;0.20;;;0.20;;
10096;SDS011;5087;42.662;23.466;2022-11-04T04:52:35;0.30;;;0.30;;
10096;SDS011;5087;42.662;23.466;2022-11-04T04:55:05;0.10;;;0.10;;
10096;SDS011;5087;42.662;23.466;2022-11-04T04:57:33;0.93;;;0.93;;
10096;SDS011;5087;42.662;23.466;2022-11-04T05:00:00;0.10;;;0.10;;
10096;SDS011;5087;42.662;23.466;2022-11-04T05:02:28;0.10;;;0.10;;
10096;SDS011;5087;42.662;23.466;2022-11-04T05:04:55;0.10;;;0.10;;
10096;SDS011;5087;42.662;23.466;2022-11-04T05:07:27;0.10;;;0.10;;
10096;SDS011;5087;42.662;23.466;2022-11-04T05:09:54;0.77;;;0.77;;
10096;SDS011;5087;42.662;23.466;2022-11-04T05:12:22;0.10;;;0.10;;
10096;SDS011;5087;42.662;23.466;2022-11-04T05:14:49;0.10;;;0.10;;
10096;SDS011;5087;42.662;23.466;2022-11-04T05:17:17;0.10;;;0.10;;
10096;SDS011;5087;42.662;23.466;2022-11-04T05:19:44;0.10;;;0.10;;
10096;SDS011;5087;42.662;23.466;2022-11-04T05:22:11;0.10;;;0.10;;
10096;SDS011;5087;42.662;23.466;2022-11-04T05:24:40;0.70;;;0.70;;
10096;SDS011;5087;42.662;23.466;2022-11-04T05:27:08;0.20;;;0.20;;
10096;SDS011;5087;42.662;23.466;2022-11-04T05:29:35;0.20;;;0.20;;
10096;SDS011;5087;42.662;23.466;2022-11-04T05:32:03;0.53;;;0.53;;
10096;SDS011;5087;42.662;23.466;2022-11-04T05:34:33;1.27;;;1.27;;
10096;SDS011;5087;42.662;23.466;2022-11-04T05:37:01;1.70;;;0.70;;
10096;SDS011;5087;42.662;23.466;2022-11-04T05:39:28;0.67;;;0.67;;
10096;SDS011;5087;42.662;23.466;2022-11-04T05:41:57;0.20;;;0.20;;
10096;SDS011;5087;42.662;23.466;2022-11-04T05:44:28;0.20;;;0.20;;
10096;SDS011;5087;42.662;23.466;2022-11-04T05:46:55;0.20;;;0.20;;
10096;SDS011;5087;42.662;23.466;2022-11-04T05:49:23;0.20;;;0.20;;
10096;SDS011;5087;42.662;23.466;2022-11-04T05:51:50;0.30;;;0.30;;
10096;SDS011;5087;42.662;23.466;2022-11-04T05:54:17;0.30;;;0.30;;
10096;SDS011;5087;42.662;23.466;2022-11-04T05:56:44;0.40;;;0.40;;
10096;SDS011;5087;42.662;23.466;2022-11-04T05:59:13;4.07;;;1.83;;
10096;SDS011;5087;42.662;23.466;2022-11-04T06:01:41;1.00;;;1.00;;
10096;SDS011;5087;42.662;23.466;2022-11-04T06:04:10;0.90;;;0.90;;
10096;SDS011;5087;42.662;23.466;2022-11-04T06:06:40;1.10;;;1.10;;
10096;SDS011;5087;42.662;23.466;2022-11-04T06:09:08;1.20;;;1.20;;
10096;SDS011;5087;42.662;23.466;2022-11-04T06:11:36;1.60;;;1.60;;
10096;SDS011;5087;42.662;23.466;2022-11-04T06:14:04;1.30;;;1.30;;
10096;SDS011;5087;42.662;23.466;2022-11-04T06:16:34;1.83;;;1.83;;
10096;SDS011;5087;42.662;23.466;2022-11-04T06:19:01;1.80;;;1.80;;
10096;SDS011;5087;42.662;23.466;2022-11-04T06:21:29;2.00;;;2.00;;
10096;SDS011;5087;42.662;23.466;2022-11-04T06:23:58;2.63;;;2.63;;
10096;SDS011;5087;42.662;23.466;2022-11-04T06:26:26;2.20;;;2.20;;
10096;SDS011;5087;42.662;23.466;2022-11-04T06:28:56;2.57;;;2.57;;
10096;SDS011;5087;42.662;23.466;2022-11-04T06:31:23;2.80;;;2.80;;
10096;SDS011;5087;42.662;23.466;2022-11-04T06:33:53;2.70;;;2.70;;
10096;SDS011;5087;42.662;23.466;2022-11-04T06:36:20;3.27;;;3.27;;
10096;SDS011;5087;42.662;23.466;2022-11-04T06:38:47;3.10;;;3.10;;
10096;SDS011;5087;42.662;23.466;2022-11-04T06:41:15;3.20;;;3.20;;
10096;SDS011;5087;42.662;23.466;2022-11-04T06:43:43;4.53;;;4.40;;
10096;SDS011;5087;42.662;23.466;2022-11-04T06:46:23;4.57;;;4.47;;
10096;SDS011;5087;42.662;23.466;2022-11-04T06:48:54;3.43;;;3.43;;
10096;SDS011;5087;42.662;23.466;2022-11-04T06:51:22;3.40;;;3.40;;
10096;SDS011;5087;42.662;23.466;2022-11-04T06:53:50;3.30;;;3.30;;
10096;SDS011;5087;42.662;23.466;2022-11-04T06:56:17;4.10;;;4.00;;
10096;SDS011;5087;42.662;23.466;2022-11-04T06:58:46;3.30;;;3.30;;
10096;SDS011;5087;42.662;23.466;2022-11-04T07:01:14;3.50;;;3.50;;
10096;SDS011;5087;42.662;23.466;2022-11-04T07:03:42;3.20;;;3.20;;
10096;SDS011;5087;42.662;23.466;2022-11-04T07:06:12;3.20;;;3.20;;
10096;SDS011;5087;42.662;23.466;2022-11-04T07:08:39;3.30;;;3.30;;
10096;SDS011;5087;42.662;23.466;2022-11-04T07:11:07;3.30;;;3.30;;
10096;SDS011;5087;42.662;23.466;2022-11-04T07:13:34;3.20;;;3.20;;
10096;SDS011;5087;42.662;23.466;2022-11-04T07:16:03;3.20;;;3.20;;
10096;SDS011;5087;42.662;23.466;2022-11-04T07:18:31;3.70;;;3.70;;
10096;SDS011;5087;42.662;23.466;2022-11-04T07:20:58;3.10;;;3.10;;
10096;SDS011;5087;42.662;23.466;2022-11-04T07:23:28;3.30;;;3.30;;
10096;SDS011;5087;42.662;23.466;2022-11-04T07:25:58;3.20;;;3.20;;
10096;SDS011;5087;42.662;23.466;2022-11-04T07:28:26;4.87;;;4.67;;
10096;SDS011;5087;42.662;23.466;2022-11-04T07:30:54;3.30;;;3.30;;
10096;SDS011;5087;42.662;23.466;2022-11-04T07:33:22;4.50;;;3.90;;
10096;SDS011;5087;42.662;23.466;2022-11-04T07:35:49;3.83;;;3.73;;
10096;SDS011;5087;42.662;23.466;2022-11-04T07:38:19;3.43;;;3.43;;
10096;SDS011;5087;42.662;23.466;2022-11-04T07:40:49;3.30;;;3.30;;
10096;SDS011;5087;42.662;23.466;2022-11-04T07:46:13;3.30;;;3.30;;
10096;SDS011;5087;42.662;23.466;2022-11-04T07:48:41;4.00;;;3.90;;
10096;SDS011;5087;42.662;23.466;2022-11-04T07:51:10;3.53;;;3.53;;
10096;SDS011;5087;42.662;23.466;2022-11-04T07:53:40;4.23;;;4.13;;
10096;SDS011;5087;42.662;23.466;2022-11-04T07:56:10;3.30;;;3.30;;
10096;SDS011;5087;42.662;23.466;2022-11-04T07:58:38;3.20;;;3.20;;
10096;SDS011;5087;42.662;23.466;2022-11-04T08:01:06;3.30;;;3.30;;
10096;SDS011;5087;42.662;23.466;2022-11-04T08:03:35;3.07;;;3.07;;
10096;SDS011;5087;42.662;23.466;2022-11-04T08:06:04;3.60;;;3.60;;
10096;SDS011;5087;42.662;23.466;2022-11-04T08:08:32;3.50;;;3.50;;
10096;SDS011;5087;42.662;23.466;2022-11-04T08:11:02;3.90;;;3.80;;
10096;SDS011;5087;42.662;23.466;2022-11-04T08:13:33;3.40;;;3.40;;
10096;SDS011;5087;42.662;23.466;2022-11-04T08:16:03;3.50;;;3.50;;
10096;SDS011;5087;42.662;23.466;2022-11-04T08:18:34;3.60;;;3.60;;
10096;SDS011;5087;42.662;23.466;2022-11-04T08:21:02;4.83;;;4.73;;
10096;SDS011;5087;42.662;23.466;2022-11-04T08:23:30;3.80;;;3.80;;
10096;SDS011;5087;42.662;23.466;2022-11-04T08:25:59;4.20;;;4.10;;
10096;SDS011;5087;42.662;23.466;2022-11-04T08:28:27;4.17;;;4.07;;
10096;SDS011;5087;42.662;23.466;2022-11-04T08:30:56;4.60;;;4.50;;
10096;SDS011;5087;42.662;23.466;2022-11-04T08:33:26;4.93;;;4.83;;
10096;SDS011;5087;42.662;23.466;2022-11-04T08:36:01;5.10;;;5.00;;
10096;SDS011;5087;42.662;23.466;2022-11-04T08:38:31;5.30;;;5.20;;
10096;SDS011;5087;42.662;23.466;2022-11-04T08:41:00;5.30;;;5.20;;
10096;SDS011;5087;42.662;23.466;2022-11-04T08:43:29;5.50;;;5.40;;
10096;SDS011;5087;42.662;23.466;2022-11-04T08:45:59;5.00;;;4.90;;
10096;SDS011;5087;42.662;23.466;2022-11-04T08:48:27;5.57;;;5.47;;
10096;SDS011;5087;42.662;23.466;2022-11-04T08:50:55;5.30;;;5.20;;
10096;SDS011;5087;42.662;23.466;2022-11-04T08:53:26;5.10;;;5.00;;
10096;SDS011;5087;42.662;23.466;2022-11-04T08:55:54;4.97;;;4.87;;
10096;SDS011;5087;42.662;23.466;2022-11-04T08:58:21;4.83;;;4.73;;
10096;SDS011;5087;42.662;23.466;2022-11-04T09:00:49;5.20;;;5.10;;
10096;SDS011;5087;42.662;23.466;2022-11-04T09:03:18;5.33;;;5.23;;
10096;SDS011;5087;42.662;23.466;2022-11-04T09:05:45;5.53;;;5.43;;
10096;SDS011;5087;42.662;23.466;2022-11-04T09:08:14;4.90;;;4.80;;
10096;SDS011;5087;42.662;23.466;2022-11-04T09:10:42;4.60;;;4.50;;
10096;SDS011;5087;42.662;23.466;2022-11-04T09:13:09;4.70;;;4.60;;
10096;SDS011;5087;42.662;23.466;2022-11-04T09:15:40;4.67;;;4.57;;
10096;SDS011;5087;42.662;23.466;2022-11-04T09:18:08;4.20;;;4.10;;
10096;SDS011;5087;42.662;23.466;2022-11-04T09:20:37;3.87;;;3.87;;
10096;SDS011;5087;42.662;23.466;2022-11-04T09:23:04;4.30;;;4.20;;
10096;SDS011;5087;42.662;23.466;2022-11-04T09:25:33;4.40;;;4.30;;
10096;SDS011;5087;42.662;23.466;2022-11-04T09:28:00;4.80;;;4.70;;
10096;SDS011;5087;42.662;23.466;2022-11-04T09:30:27;4.60;;;4.50;;
10096;SDS011;5087;42.662;23.466;2022-11-04T09:32:54;5.63;;;5.53;;
10096;SDS011;5087;42.662;23.466;2022-11-04T09:35:22;5.10;;;5.00;;
10096;SDS011;5087;42.662;23.466;2022-11-04T09:37:53;4.90;;;4.80;;
10096;SDS011;5087;42.662;23.466;2022-11-04T09:40:20;5.10;;;5.00;;
10096;SDS011;5087;42.662;23.466;2022-11-04T09:42:52;5.63;;;5.53;;
10096;SDS011;5087;42.662;23.466;2022-11-04T09:45:32;5.30;;;5.20;;
10096;SDS011;5087;42.662;23.466;2022-11-04T09:48:02;5.00;;;4.90;;
10096;SDS011;5087;42.662;23.466;2022-11-04T09:50:33;4.90;;;4.80;;
10096;SDS011;5087;42.662;23.466;2022-11-04T09:53:12;5.30;;;5.20;;
10096;SDS011;5087;42.662;23.466;2022-11-04T09:55:46;5.10;;;5.00;;
10096;SDS011;5087;42.662;23.466;2022-11-04T09:58:18;4.93;;;4.83;;
10096;SDS011;5087;42.662;23.466;2022-11-04T10:00:47;5.00;;;4.90;;
10096;SDS011;5087;42.662;23.466;2022-11-04T10:03:32;4.73;;;4.63;;
10096;SDS011;5087;42.662;23.466;2022-11-04T10:06:14;4.50;;;4.40;;
10096;SDS011;5087;42.662;23.466;2022-11-04T10:08:59;5.07;;;4.97;;
10096;SDS011;5087;42.662;23.466;2022-11-04T10:11:44;5.67;;;5.37;;
10096;SDS011;5087;42.662;23.466;2022-11-04T10:14:30;5.00;;;4.90;;
10096;SDS011;5087;42.662;23.466;2022-11-04T10:17:20;4.80;;;4.70;;
10096;SDS011;5087;42.662;23.466;2022-11-04T10:20:07;4.30;;;4.20;;
10096;SDS011;5087;42.662;23.466;2022-11-04T10:22:48;4.73;;;4.63;;
10096;SDS011;5087;42.662;23.466;2022-11-04T10:25:26;3.83;;;3.83;;
10096;SDS011;5087;42.662;23.466;2022-11-04T10:27:56;4.10;;;4.00;;
10096;SDS011;5087;42.662;23.466;2022-11-04T10:30:25;4.17;;;4.07;;
10096;SDS011;5087;42.662;23.466;2022-11-04T10:33:01;4.33;;;4.23;;
10096;SDS011;5087;42.662;23.466;2022-11-04T10:35:35;4.30;;;4.20;;
10096;SDS011;5087;42.662;23.466;2022-11-04T10:38:16;3.80;;;3.80;;
10096;SDS011;5087;42.662;23.466;2022-11-04T10:40:49;5.43;;;5.27;;
10096;SDS011;5087;42.662;23.466;2022-11-04T10:43:20;6.03;;;5.70;;
10096;SDS011;5087;42.662;23.466;2022-11-04T10:45:58;4.10;;;4.00;;
10096;SDS011;5087;42.662;23.466;2022-11-04T10:48:36;3.40;;;3.40;;
10096;SDS011;5087;42.662;23.466;2022-11-04T10:51:10;4.30;;;4.20;;
10096;SDS011;5087;42.662;23.466;2022-11-04T10:53:37;3.60;;;3.60;;
10096;SDS011;5087;42.662;23.466;2022-11-04T10:56:09;3.70;;;3.70;;
10096;SDS011;5087;42.662;23.466;2022-11-04T10:58:45;3.40;;;3.40;;
10096;SDS011;5087;42.662;23.466;2022-11-04T11:01:24;4.13;;;4.03;;
10096;SDS011;5087;42.662;23.466;2022-11-04T11:03:52;4.63;;;4.53;;
10096;SDS011;5087;42.662;23.466;2022-11-04T11:06:24;4.00;;;3.90;;
10096;SDS011;5087;42.662;23.466;2022-11-04T11:08:55;3.70;;;3.70;;
10096;SDS011;5087;42.662;23.466;2022-11-04T11:11:36;3.80;;;3.80;;
10096;SDS011;5087;42.662;23.466;2022-11-04T11:14:14;4.40;;;4.30;;
10096;SDS011;5087;42.662;23.466;2022-11-04T11:16:43;4.67;;;4.57;;
10096;SDS011;5087;42.662;23.466;2022-11-04T11:19:13;3.97;;;3.87;;
10096;SDS011;5087;42.662;23.466;2022-11-04T11:21:43;4.03;;;3.93;;
10096;SDS011;5087;42.662;23.466;2022-11-04T11:24:14;4.27;;;4.17;;
10096;SDS011;5087;42.662;23.466;2022-11-04T11:26:47;3.60;;;3.60;;
10096;SDS011;5087;42.662;23.466;2022-11-04T11:29:22;3.20;;;3.20;;
10096;SDS011;5087;42.662;23.466;2022-11-04T11:32:04;3.53;;;3.53;;
10096;SDS011;5087;42.662;23.466;2022-11-04T11:34:53;4.03;;;3.93;;
10096;SDS011;5087;42.662;23.466;2022-11-04T11:37:29;3.40;;;3.40;;
10096;SDS011;5087;42.662;23.466;2022-11-04T11:39:57;3.40;;;3.30;;
10096;SDS011;5087;42.662;23.466;2022-11-04T11:42:27;3.10;;;3.10;;
10096;SDS011;5087;42.662;23.466;2022-11-04T11:44:55;3.10;;;3.10;;
10096;SDS011;5087;42.662;23.466;2022-11-04T11:47:33;3.27;;;3.27;;
10096;SDS011;5087;42.662;23.466;2022-11-04T11:50:13;3.20;;;3.20;;
10096;SDS011;5087;42.662;23.466;2022-11-04T11:52:42;3.10;;;3.10;;
10096;SDS011;5087;42.662;23.466;2022-11-04T11:55:11;3.00;;;3.00;;
10096;SDS011;5087;42.662;23.466;2022-11-04T11:57:49;3.43;;;3.30;;
10096;SDS011;5087;42.662;23.466;2022-11-04T12:00:29;5.20;;;4.93;;
10096;SDS011;5087;42.662;23.466;2022-11-04T12:03:04;3.20;;;3.20;;
10096;SDS011;5087;42.662;23.466;2022-11-04T12:05:40;3.37;;;3.37;;
10096;SDS011;5087;42.662;23.466;2022-11-04T12:08:22;4.13;;;4.03;;
10096;SDS011;5087;42.662;23.466;2022-11-04T12:11:18;3.30;;;3.30;;
10096;SDS011;5087;42.662;23.466;2022-11-04T12:13:55;3.50;;;3.50;;
10096;SDS011;5087;42.662;23.466;2022-11-04T12:16:28;3.50;;;3.50;;
10096;SDS011;5087;42.662;23.466;2022-11-04T12:19:11;3.60;;;3.60;;
10096;SDS011;5087;42.662;23.466;2022-11-04T12:21:48;4.43;;;4.33;;
10096;SDS011;5087;42.662;23.466;2022-11-04T12:24:27;3.40;;;3.40;;
10096;SDS011;5087;42.662;23.466;2022-11-04T12:27:07;3.50;;;3.50;;
10096;SDS011;5087;42.662;23.466;2022-11-04T12:29:48;3.60;;;3.60;;
10096;SDS011;5087;42.662;23.466;2022-11-04T12:32:26;4.33;;;4.13;;
10096;SDS011;5087;42.662;23.466;2022-11-04T12:35:02;3.83;;;3.73;;
10096;SDS011;5087;42.662;23.466;2022-11-04T12:37:45;3.70;;;3.70;;
10096;SDS011;5087;42.662;23.466;2022-11-04T12:40:24;4.10;;;4.00;;
10096;SDS011;5087;42.662;23.466;2022-11-04T12:42:59;4.30;;;4.20;;
10096;SDS011;5087;42.662;23.466;2022-11-04T12:45:44;4.20;;;4.10;;
10096;SDS011;5087;42.662;23.466;2022-11-04T12:51:15;4.80;;;4.70;;
10096;SDS011;5087;42.662;23.466;2022-11-04T12:53:59;4.70;;;4.57;;
10096;SDS011;5087;42.662;23.466;2022-11-04T12:56:47;3.90;;;3.90;;
10096;SDS011;5087;42.662;23.466;2022-11-04T13:02:31;3.97;;;3.87;;
10096;SDS011;5087;42.662;23.466;2022-11-04T13:05:02;4.30;;;4.10;;
10096;SDS011;5087;42.662;23.466;2022-11-04T13:07:37;3.70;;;3.70;;
10096;SDS011;5087;42.662;23.466;2022-11-04T13:10:13;3.60;;;3.60;;
10096;SDS011;5087;42.662;23.466;2022-11-04T13:12:46;4.00;;;3.90;;
10096;SDS011;5087;42.662;23.466;2022-11-04T13:15:19;4.10;;;4.00;;
10096;SDS011;5087;42.662;23.466;2022-11-04T13:17:51;4.40;;;4.30;;
10096;SDS011;5087;42.662;23.466;2022-11-04T13:20:25;3.80;;;3.80;;
10096;SDS011;5087;42.662;23.466;2022-11-04T13:22:58;4.80;;;4.70;;
10096;SDS011;5087;42.662;23.466;2022-11-04T13:25:30;4.40;;;4.30;;
10096;SDS011;5087;42.662;23.466;2022-11-04T13:28:05;4.20;;;4.10;;
10096;SDS011;5087;42.662;23.466;2022-11-04T13:30:39;3.70;;;3.70;;
10096;SDS011;5087;42.662;23.466;2022-11-04T13:33:16;4.20;;;4.10;;
10096;SDS011;5087;42.662;23.466;2022-11-04T13:35:55;4.20;;;4.10;;
10096;SDS011;5087;42.662;23.466;2022-11-04T13:38:29;3.73;;;3.67;;
10096;SDS011;5087;42.662;23.466;2022-11-04T13:41:08;3.70;;;3.70;;
10096;SDS011;5087;42.662;23.466;2022-11-04T13:43:55;5.73;;;5.43;;
10096;SDS011;5087;42.662;23.466;2022-11-04T13:46:24;4.60;;;4.50;;
10096;SDS011;5087;42.662;23.466;2022-11-04T13:48:59;6.27;;;5.77;;
10096;SDS011;5087;42.662;23.466;2022-11-04T13:51:35;4.47;;;4.37;;
10096;SDS011;5087;42.662;23.466;2022-11-04T13:54:05;4.50;;;4.40;;
10096;SDS011;5087;42.662;23.466;2022-11-04T13:56:39;4.00;;;4.00;;
10096;SDS011;5087;42.662;23.466;2022-11-04T13:59:17;4.20;;;4.10;;
10096;SDS011;5087;42.662;23.466;2022-11-04T14:01:48;5.67;;;5.37;;
10096;SDS011;5087;42.662;23.466;2022-11-04T14:08:19;4.20;;;4.10;;
10096;SDS011;5087;42.662;23.466;2022-11-04T14:11:00;4.97;;;4.87;;
10096;SDS011;5087;42.662;23.466;2022-11-04T14:13:45;7.50;;;7.07;;
10096;SDS011;5087;42.662;23.466;2022-11-04T14:16:39;4.70;;;4.60;;
10096;SDS011;5087;42.662;23.466;2022-11-04T14:22:20;3.60;;;3.60;;
10096;SDS011;5087;42.662;23.466;2022-11-04T14:24:54;5.90;;;5.70;;
10096;SDS011;5087;42.662;23.466;2022-11-04T14:27:25;3.77;;;3.77;;
10096;SDS011;5087;42.662;23.466;2022-11-04T14:29:57;4.53;;;4.43;;
10096;SDS011;5087;42.662;23.466;2022-11-04T14:32:26;4.50;;;4.40;;
10096;SDS011;5087;42.662;23.466;2022-11-04T14:34:58;4.30;;;4.20;;
10096;SDS011;5087;42.662;23.466;2022-11-04T14:37:29;4.70;;;4.60;;
10096;SDS011;5087;42.662;23.466;2022-11-04T14:40:00;4.50;;;4.40;;
10096;SDS011;5087;42.662;23.466;2022-11-04T14:42:41;4.90;;;4.80;;
10096;SDS011;5087;42.662;23.466;2022-11-04T14:45:11;4.20;;;4.10;;
10096;SDS011;5087;42.662;23.466;2022-11-04T14:47:45;4.20;;;4.10;;
10096;SDS011;5087;42.662;23.466;2022-11-04T14:50:16;4.40;;;4.30;;
10096;SDS011;5087;42.662;23.466;2022-11-04T14:52:47;4.53;;;4.43;;
10096;SDS011;5087;42.662;23.466;2022-11-04T14:55:20;4.83;;;4.63;;
10096;SDS011;5087;42.662;23.466;2022-11-04T14:57:50;4.20;;;4.10;;
10096;SDS011;5087;42.662;23.466;2022-11-04T15:00:23;4.60;;;4.50;;
10096;SDS011;5087;42.662;23.466;2022-11-04T15:03:02;4.70;;;4.60;;
10096;SDS011;5087;42.662;23.466;2022-11-04T15:05:45;4.70;;;4.60;;
10096;SDS011;5087;42.662;23.466;2022-11-04T15:08:24;4.70;;;4.60;;
10096;SDS011;5087;42.662;23.466;2022-11-04T15:10:59;5.20;;;5.10;;
10096;SDS011;5087;42.662;23.466;2022-11-04T15:13:31;4.80;;;4.70;;
10096;SDS011;5087;42.662;23.466;2022-11-04T15:16:00;5.10;;;5.00;;
10096;SDS011;5087;42.662;23.466;2022-11-04T15:18:33;5.40;;;5.30;;
10096;SDS011;5087;42.662;23.466;2022-11-04T15:21:05;5.10;;;5.00;;
10096;SDS011;5087;42.662;23.466;2022-11-04T15:23:35;5.10;;;5.00;;
10096;SDS011;5087;42.662;23.466;2022-11-04T15:26:13;4.63;;;4.53;;
10096;SDS011;5087;42.662;23.466;2022-11-04T15:28:46;4.80;;;4.70;;
10096;SDS011;5087;42.662;23.466;2022-11-04T15:31:15;5.70;;;5.50;;
10096;SDS011;5087;42.662;23.466;2022-11-04T15:33:46;4.80;;;4.70;;
10096;SDS011;5087;42.662;23.466;2022-11-04T15:36:16;5.07;;;4.97;;
10096;SDS011;5087;42.662;23.466;2022-11-04T15:38:48;5.30;;;5.20;;